createdAt,value
2017-03-07T00:00:12.013Z,90.13
2017-03-07T00:00:38.506Z,90.24
2017-03-07T00:01:00.229Z,90.18
2017-03-07T00:01:21.945Z,90.31
2017-03-07T00:01:43.650Z,90.11
2017-03-07T00:02:05.388Z,89.82
2017-03-07T00:02:27.127Z,89.85
2017-03-07T00:02:53.611Z,89.96
2017-03-07T00:03:15.318Z,90.02
2017-03-07T00:03:46.559Z,90.12
2017-03-07T00:04:08.382Z,89.91
2017-03-07T00:04:39.633Z,89.90
2017-03-07T00:05:01.336Z,89.68
2017-03-07T00:06:08.618Z,90.00
2017-03-07T00:06:30.308Z,90.22
2017-03-07T00:06:56.795Z,90.41
2017-03-07T00:07:18.492Z,90.28
2017-03-07T00:07:40.198Z,90.32
2017-03-07T00:08:11.451Z,90.19
2017-03-07T00:08:33.247Z,90.44
2017-03-07T00:09:04.510Z,90.30
2017-03-07T00:09:26.232Z,90.34
2017-03-07T00:09:47.940Z,90.44
2017-03-07T00:10:09.641Z,90.39
2017-03-07T00:10:31.349Z,90.49
2017-03-07T00:11:34.412Z,90.48
2017-03-07T00:11:56.112Z,90.45
2017-03-07T00:12:27.368Z,90.08
2017-03-07T00:12:49.195Z,90.24
2017-03-07T00:13:15.682Z,90.26
2017-03-07T00:13:37.377Z,90.26
2017-03-07T00:14:03.873Z,90.28
2017-03-07T00:14:25.652Z,90.31
2017-03-07T00:14:47.364Z,90.34
2017-03-07T00:15:13.852Z,89.98
2017-03-07T00:15:35.593Z,89.74
2017-03-07T00:16:42.858Z,89.65
2017-03-07T00:17:04.566Z,89.76
2017-03-07T00:17:26.278Z,89.84
2017-03-07T00:17:52.762Z,89.39
2017-03-07T00:18:14.455Z,89.52
2017-03-07T00:19:17.605Z,89.31
2017-03-07T00:19:39.306Z,89.27
2017-03-07T00:20:05.797Z,88.95
2017-03-07T00:20:27.505Z,88.61
2017-03-07T00:20:49.212Z,88.54
2017-03-07T00:21:10.922Z,88.48
2017-03-07T00:21:32.712Z,88.45
2017-03-07T00:21:54.412Z,88.46
2017-03-07T00:22:20.892Z,88.48
2017-03-07T00:22:42.599Z,87.85
2017-03-07T00:23:45.659Z,87.85
2017-03-07T00:24:07.384Z,87.91
2017-03-07T00:24:29.198Z,87.93
2017-03-07T00:25:00.456Z,88.10
2017-03-07T00:25:22.159Z,88.04
2017-03-07T00:25:53.419Z,88.00
2017-03-07T00:26:15.203Z,88.12
2017-03-07T00:26:46.460Z,88.06
2017-03-07T00:27:08.172Z,88.07
2017-03-07T00:27:30.043Z,88.09
2017-03-07T00:27:56.552Z,88.20
2017-03-07T00:28:18.373Z,88.39
2017-03-07T00:28:40.180Z,88.55
2017-03-07T00:29:06.750Z,88.70
2017-03-07T00:29:28.526Z,88.75
2017-03-07T00:29:50.314Z,88.78
2017-03-07T00:30:16.790Z,88.72
2017-03-07T00:30:38.543Z,88.60
2017-03-07T00:31:00.244Z,88.66
2017-03-07T00:32:48.310Z,88.59
2017-03-07T00:34:43.417Z,88.71
2017-03-07T00:35:10.091Z,88.60
2017-03-07T00:35:41.428Z,88.62
2017-03-07T00:36:03.376Z,88.57
2017-03-07T00:36:29.118Z,88.62
2017-03-07T00:36:58.876Z,88.76
2017-03-07T00:37:58.497Z,88.63
2017-03-07T00:38:30.979Z,88.69
2017-03-07T00:39:02.266Z,88.35
2017-03-07T00:39:41.957Z,88.03
2017-03-07T00:40:29.554Z,88.69
2017-03-07T00:41:05.414Z,88.77
2017-03-07T00:41:37.870Z,88.70
2017-03-07T00:43:36.611Z,88.96
2017-03-07T00:45:24.801Z,89.07
2017-03-07T00:45:54.335Z,89.04
2017-03-07T00:47:04.967Z,89.38
2017-03-07T00:47:38.833Z,89.36
2017-03-07T00:48:00.795Z,89.14
2017-03-07T00:49:03.659Z,89.11
2017-03-07T00:49:31.212Z,89.12
2017-03-07T00:49:54.076Z,88.97
2017-03-07T00:50:20.698Z,89.04
2017-03-07T00:50:57.545Z,88.98
2017-03-07T00:51:24.068Z,89.10
2017-03-07T00:51:53.518Z,88.88
2017-03-07T00:52:18.149Z,88.87
2017-03-07T00:52:49.541Z,89.05
2017-03-07T00:53:11.406Z,89.08
2017-03-07T00:53:43.096Z,89.02
2017-03-07T00:54:12.708Z,89.03
2017-03-07T00:55:46.007Z,89.22
2017-03-07T00:56:07.783Z,89.18
2017-03-07T00:56:34.443Z,88.91
2017-03-07T00:57:01.105Z,88.88
2017-03-07T00:58:38.653Z,88.97
2017-03-07T00:59:03.928Z,88.84
2017-03-07T00:59:38.501Z,88.88
2017-03-07T01:00:58.307Z,88.80
2017-03-07T01:02:10.479Z,88.84
2017-03-07T01:03:51.569Z,88.93
2017-03-07T01:04:25.451Z,89.08
2017-03-07T01:05:34.090Z,89.27
2017-03-07T01:07:25.430Z,89.14
2017-03-07T01:08:30.175Z,89.12
2017-03-07T01:08:57.856Z,89.22
2017-03-07T01:10:22.806Z,88.97
2017-03-07T01:10:54.159Z,89.02
2017-03-07T01:11:25.457Z,89.05
2017-03-07T01:13:00.334Z,89.11
2017-03-07T01:13:27.326Z,89.04
2017-03-07T01:13:51.947Z,89.11
2017-03-07T01:14:18.590Z,89.14
2017-03-07T01:14:47.969Z,89.12
2017-03-07T01:15:19.299Z,89.13
2017-03-07T01:15:45.876Z,89.10
2017-03-07T01:16:42.952Z,88.94
2017-03-07T01:17:12.137Z,88.82
2017-03-07T01:17:38.910Z,88.97
2017-03-07T01:18:03.355Z,88.72
2017-03-07T01:18:32.508Z,88.91
2017-03-07T01:19:39.035Z,89.17
2017-03-07T01:20:50.949Z,89.00
2017-03-07T01:21:16.379Z,88.66
2017-03-07T01:21:49.941Z,88.46
2017-03-07T01:22:22.622Z,88.76
2017-03-07T01:22:49.369Z,89.00
2017-03-07T01:23:14.028Z,89.13
2017-03-07T01:23:46.316Z,89.30
2017-03-07T01:24:56.094Z,89.05
2017-03-07T01:25:32.332Z,88.84
2017-03-07T01:26:44.728Z,88.53
2017-03-07T01:28:25.605Z,88.12
2017-03-07T01:28:48.497Z,88.19
2017-03-07T01:29:19.926Z,88.20
2017-03-07T01:29:55.971Z,88.05
2017-03-07T01:30:18.812Z,87.93
2017-03-07T01:30:45.464Z,87.82
2017-03-07T01:32:23.052Z,87.54
2017-03-07T01:32:58.646Z,87.38
2017-03-07T01:33:22.586Z,87.03
2017-03-07T01:33:50.376Z,87.05
2017-03-07T01:36:40.854Z,86.77
2017-03-07T01:37:06.961Z,86.79
2017-03-07T01:37:40.879Z,86.76
2017-03-07T01:38:03.105Z,86.63
2017-03-07T01:38:30.376Z,86.67
2017-03-07T01:39:01.758Z,86.79
2017-03-07T01:39:33.698Z,86.59
2017-03-07T01:40:39.728Z,86.76
2017-03-07T01:42:04.415Z,86.88
2017-03-07T01:43:33.468Z,87.17
2017-03-07T01:43:55.159Z,87.10
2017-03-07T01:44:16.885Z,87.22
2017-03-07T01:44:43.442Z,87.22
2017-03-07T01:45:05.135Z,87.16
2017-03-07T01:45:26.926Z,87.42
2017-03-07T01:45:53.426Z,87.40
2017-03-07T01:46:15.259Z,87.32
2017-03-07T01:46:36.960Z,87.35
2017-03-07T01:47:08.210Z,87.32
2017-03-07T01:47:29.910Z,87.20
2017-03-07T01:47:51.704Z,87.28
2017-03-07T01:48:13.416Z,87.34
2017-03-07T01:48:35.217Z,87.39
2017-03-07T01:48:56.923Z,87.49
2017-03-07T01:49:18.734Z,87.49
2017-03-07T01:49:40.538Z,87.40
2017-03-07T01:50:07.019Z,87.43
2017-03-07T01:50:28.710Z,87.29
2017-03-07T01:50:50.404Z,87.37
2017-03-07T01:51:16.899Z,87.43
2017-03-07T01:51:38.617Z,87.37
2017-03-07T01:52:41.123Z,87.38
2017-03-07T01:53:02.815Z,87.32
2017-03-07T01:54:01.195Z,86.70
2017-03-07T01:54:22.991Z,86.78
2017-03-07T01:54:44.688Z,86.90
2017-03-07T01:55:11.163Z,86.86
2017-03-07T01:55:32.867Z,86.76
2017-03-07T01:55:54.683Z,86.80
2017-03-07T01:56:16.383Z,86.72
2017-03-07T01:56:38.113Z,86.75
2017-03-07T01:57:09.362Z,86.76
2017-03-07T01:57:31.054Z,86.62
2017-03-07T01:58:02.316Z,86.65
2017-03-07T01:58:24.102Z,86.63
2017-03-07T01:58:45.806Z,86.66
2017-03-07T01:59:12.278Z,86.81
2017-03-07T01:59:33.986Z,86.63
2017-03-07T01:59:55.784Z,86.72
2017-03-07T02:00:27.035Z,86.75
2017-03-07T02:00:48.742Z,86.88
2017-03-07T02:01:20.020Z,86.90
2017-03-07T02:01:41.823Z,86.87
2017-03-07T02:02:08.300Z,86.87
2017-03-07T02:02:29.992Z,86.83
2017-03-07T02:02:56.475Z,86.87
2017-03-07T02:03:18.168Z,86.94
2017-03-07T02:03:39.976Z,86.95
2017-03-07T02:04:01.714Z,87.02
2017-03-07T02:04:23.409Z,87.08
2017-03-07T02:04:49.881Z,87.11
2017-03-07T02:05:11.582Z,87.09
2017-03-07T02:05:33.366Z,87.12
2017-03-07T02:05:55.167Z,87.08
2017-03-07T02:06:21.640Z,87.19
2017-03-07T02:06:43.362Z,87.26
2017-03-07T02:07:09.931Z,87.35
2017-03-07T02:07:31.627Z,87.10
2017-03-07T02:07:58.111Z,87.22
2017-03-07T02:08:19.803Z,87.50
2017-03-07T02:08:46.280Z,87.56
2017-03-07T02:09:07.982Z,87.53
2017-03-07T02:09:29.694Z,87.52
2017-03-07T02:10:01.027Z,87.48
2017-03-07T02:10:22.815Z,87.53
2017-03-07T02:10:54.072Z,87.55
2017-03-07T02:11:15.764Z,87.45
2017-03-07T02:11:42.360Z,87.32
2017-03-07T02:12:04.076Z,87.30
2017-03-07T02:12:30.543Z,87.49
2017-03-07T02:12:52.329Z,87.50
2017-03-07T02:13:18.812Z,87.36
2017-03-07T02:13:40.611Z,87.23
2017-03-07T02:14:43.701Z,87.39
2017-03-07T02:15:05.394Z,87.57
2017-03-07T02:15:27.107Z,87.61
2017-03-07T02:15:53.577Z,87.66
2017-03-07T02:16:15.360Z,87.68
2017-03-07T02:16:37.052Z,87.72
2017-03-07T02:17:08.328Z,87.89
2017-03-07T02:17:30.028Z,88.01
2017-03-07T02:17:51.728Z,88.07
2017-03-07T02:18:22.985Z,87.96
2017-03-07T02:18:44.673Z,87.94
2017-03-07T02:19:11.160Z,87.90
2017-03-07T02:19:32.969Z,87.95
2017-03-07T02:19:54.683Z,87.76
2017-03-07T02:20:21.151Z,87.55
2017-03-07T02:20:42.984Z,87.77
2017-03-07T02:21:09.480Z,87.95
2017-03-07T02:21:31.176Z,87.85
2017-03-07T02:22:38.449Z,88.50
2017-03-07T02:23:00.159Z,88.57
2017-03-07T02:23:21.948Z,88.53
2017-03-07T02:23:48.445Z,88.56
2017-03-07T02:24:10.248Z,88.73
2017-03-07T02:24:36.720Z,88.88
2017-03-07T02:24:58.424Z,88.59
2017-03-07T02:25:24.902Z,88.68
2017-03-07T02:25:46.593Z,88.56
2017-03-07T02:26:08.294Z,88.46
2017-03-07T02:26:30.079Z,88.28
2017-03-07T02:26:51.776Z,88.22
2017-03-07T02:27:13.497Z,88.42
2017-03-07T02:27:44.752Z,88.63
2017-03-07T02:28:06.440Z,88.53
2017-03-07T02:28:28.151Z,88.61
2017-03-07T02:28:49.861Z,88.69
2017-03-07T02:29:11.551Z,88.83
2017-03-07T02:29:33.250Z,88.89
2017-03-07T02:29:59.737Z,88.97
2017-03-07T02:30:21.436Z,89.04
2017-03-07T02:30:43.131Z,88.89
2017-03-07T02:31:09.603Z,88.93
2017-03-07T02:31:31.317Z,89.11
2017-03-07T02:31:53.036Z,89.29
2017-03-07T02:32:19.606Z,89.39
2017-03-07T02:32:41.320Z,89.40
2017-03-07T02:33:07.778Z,89.21
2017-03-07T02:33:29.471Z,89.19
2017-03-07T02:33:56.129Z,89.39
2017-03-07T02:34:17.925Z,89.35
2017-03-07T02:34:44.396Z,89.33
2017-03-07T02:35:06.091Z,89.55
2017-03-07T02:35:27.809Z,89.58
2017-03-07T02:35:49.615Z,89.53
2017-03-07T02:36:11.306Z,89.59
2017-03-07T02:36:33.000Z,89.50
2017-03-07T02:37:04.250Z,89.47
2017-03-07T02:37:25.973Z,89.53
2017-03-07T02:37:52.443Z,89.67
2017-03-07T02:38:14.163Z,89.66
2017-03-07T02:38:35.874Z,89.66
2017-03-07T02:39:43.145Z,89.54
2017-03-07T02:40:04.837Z,89.49
2017-03-07T02:40:31.317Z,89.79
2017-03-07T02:40:53.011Z,89.93
2017-03-07T02:41:14.719Z,89.91
2017-03-07T02:41:36.419Z,89.97
2017-03-07T02:41:58.117Z,89.91
2017-03-07T02:42:19.823Z,90.04
2017-03-07T02:42:41.560Z,90.16
2017-03-07T02:43:03.260Z,90.23
2017-03-07T02:43:29.740Z,90.19
2017-03-07T02:43:51.440Z,90.19
2017-03-07T02:44:13.131Z,90.18
2017-03-07T02:44:34.820Z,90.28
2017-03-07T02:44:56.518Z,90.28
2017-03-07T02:45:49.489Z,90.01
2017-03-07T02:46:15.991Z,90.03
2017-03-07T02:46:37.663Z,90.09
2017-03-07T02:46:59.373Z,90.08
2017-03-07T02:47:25.849Z,90.40
2017-03-07T02:47:47.579Z,90.39
2017-03-07T02:48:14.058Z,90.50
2017-03-07T02:48:35.749Z,90.48
2017-03-07T02:49:02.242Z,90.52
2017-03-07T02:49:23.932Z,90.43
2017-03-07T02:49:45.643Z,90.60
2017-03-07T02:50:48.151Z,90.82
2017-03-07T02:51:09.869Z,90.60
2017-03-07T02:51:31.557Z,90.54
2017-03-07T02:51:53.286Z,90.44
2017-03-07T02:52:19.756Z,90.50
2017-03-07T02:52:41.449Z,90.50
2017-03-07T02:53:03.173Z,90.56
2017-03-07T02:53:34.415Z,90.43
2017-03-07T02:53:56.124Z,90.34
2017-03-07T02:54:22.597Z,90.48
2017-03-07T02:54:44.340Z,90.65
2017-03-07T02:55:06.048Z,90.64
2017-03-07T02:56:04.528Z,90.41
2017-03-07T02:56:27.338Z,90.63
2017-03-07T02:57:29.864Z,90.79
2017-03-07T02:57:51.632Z,90.62
2017-03-07T02:58:14.370Z,90.53
2017-03-07T02:58:45.743Z,90.42
2017-03-07T02:59:07.446Z,90.50
2017-03-07T03:00:14.775Z,90.79
2017-03-07T03:00:36.607Z,90.86
2017-03-07T03:01:43.903Z,91.08
2017-03-07T03:02:05.630Z,90.92
2017-03-07T03:03:12.933Z,90.99
2017-03-07T03:03:37.301Z,90.92
2017-03-07T03:04:49.394Z,90.84
2017-03-07T03:05:11.114Z,90.76
2017-03-07T03:06:23.188Z,90.71
2017-03-07T03:06:44.926Z,90.71
2017-03-07T03:07:52.234Z,90.39
2017-03-07T03:08:13.996Z,90.43
2017-03-07T03:09:21.413Z,90.32
2017-03-07T03:09:43.120Z,90.44
2017-03-07T03:10:46.412Z,90.49
2017-03-07T03:11:08.205Z,90.59
2017-03-07T03:11:34.804Z,90.65
2017-03-07T03:11:56.559Z,90.68
2017-03-07T03:13:08.658Z,91.07
2017-03-07T03:13:30.396Z,91.01
2017-03-07T03:13:56.905Z,91.08
2017-03-07T03:14:18.629Z,91.18
2017-03-07T03:14:40.343Z,91.19
2017-03-07T03:15:02.081Z,91.29
2017-03-07T03:15:23.925Z,91.25
2017-03-07T03:15:45.724Z,91.25
2017-03-07T03:16:12.350Z,91.27
2017-03-07T03:16:34.191Z,91.19
2017-03-07T03:17:05.436Z,90.98
2017-03-07T03:17:27.157Z,90.92
2017-03-07T03:17:48.871Z,90.88
2017-03-07T03:18:10.678Z,90.85
2017-03-07T03:18:35.078Z,90.99
2017-03-07T03:19:01.463Z,91.04
2017-03-07T03:19:23.269Z,90.96
2017-03-07T03:20:29.136Z,90.88
2017-03-07T03:20:50.894Z,90.83
2017-03-07T03:21:12.702Z,90.85
2017-03-07T03:21:39.192Z,90.80
2017-03-07T03:22:00.900Z,90.73
2017-03-07T03:22:22.624Z,90.62
2017-03-07T03:22:49.098Z,90.35
2017-03-07T03:23:18.249Z,90.54
2017-03-07T03:23:39.992Z,90.55
2017-03-07T03:24:47.900Z,90.40
2017-03-07T03:25:09.740Z,90.49
2017-03-07T03:25:36.316Z,90.33
2017-03-07T03:25:58.026Z,90.20
2017-03-07T03:26:24.521Z,90.21
2017-03-07T03:26:46.226Z,90.22
2017-03-07T03:27:07.992Z,90.41
2017-03-07T03:27:34.482Z,90.39
2017-03-07T03:27:56.234Z,90.33
2017-03-07T03:28:20.994Z,90.31
2017-03-07T03:28:42.816Z,90.38
2017-03-07T03:29:41.231Z,90.14
2017-03-07T03:30:02.940Z,90.23
2017-03-07T03:30:34.192Z,90.25
2017-03-07T03:30:55.935Z,90.26
2017-03-07T03:31:17.682Z,90.54
2017-03-07T03:31:39.397Z,90.68
2017-03-07T03:32:01.128Z,90.66
2017-03-07T03:32:22.860Z,90.30
2017-03-07T03:32:54.117Z,90.14
2017-03-07T03:33:15.898Z,90.31
2017-03-07T03:33:37.629Z,90.30
2017-03-07T03:34:08.886Z,90.34
2017-03-07T03:34:30.589Z,90.32
2017-03-07T03:35:01.915Z,90.50
2017-03-07T03:35:23.661Z,90.64
2017-03-07T03:35:54.921Z,90.57
2017-03-07T03:36:16.766Z,90.47
2017-03-07T03:36:48.060Z,90.34
2017-03-07T03:37:09.811Z,90.33
2017-03-07T03:37:36.421Z,90.22
2017-03-07T03:37:58.261Z,90.33
2017-03-07T03:38:56.601Z,90.29
2017-03-07T03:39:18.351Z,90.35
2017-03-07T03:39:49.613Z,90.30
2017-03-07T03:40:11.310Z,90.17
2017-03-07T03:40:33.047Z,90.06
2017-03-07T03:40:59.535Z,90.04
2017-03-07T03:41:21.295Z,90.03
2017-03-07T03:41:43.042Z,90.30
2017-03-07T03:42:09.522Z,90.42
2017-03-07T03:42:31.404Z,90.49
2017-03-07T03:42:53.122Z,90.38
2017-03-07T03:43:24.392Z,90.04
2017-03-07T03:43:46.142Z,90.16
2017-03-07T03:44:17.404Z,90.17
2017-03-07T03:45:10.394Z,90.50
2017-03-07T03:45:32.105Z,90.56
2017-03-07T03:46:03.356Z,90.67
2017-03-07T03:46:25.092Z,90.75
2017-03-07T03:46:46.828Z,90.64
2017-03-07T03:47:13.351Z,90.81
2017-03-07T03:47:35.083Z,90.90
2017-03-07T03:47:56.836Z,90.44
2017-03-07T03:48:23.327Z,90.34
2017-03-07T03:48:45.100Z,90.42
2017-03-07T03:49:11.559Z,90.31
2017-03-07T03:49:33.285Z,90.46
2017-03-07T03:49:59.831Z,90.43
2017-03-07T03:50:21.661Z,90.40
2017-03-07T03:50:48.155Z,90.29
2017-03-07T03:51:09.993Z,90.33
2017-03-07T03:51:38.853Z,90.43
2017-03-07T03:52:00.516Z,90.56
2017-03-07T03:53:12.608Z,90.31
2017-03-07T03:53:34.306Z,90.33
2017-03-07T03:54:05.583Z,90.31
2017-03-07T03:54:27.291Z,90.42
2017-03-07T03:54:58.549Z,90.35
2017-03-07T03:55:20.281Z,90.57
2017-03-07T03:55:42.004Z,90.34
2017-03-07T03:56:08.486Z,90.52
2017-03-07T03:56:30.197Z,90.50
2017-03-07T03:56:59.033Z,90.41
2017-03-07T03:57:20.735Z,90.43
2017-03-07T03:57:51.991Z,90.41
2017-03-07T03:58:13.745Z,90.37
2017-03-07T03:58:35.478Z,90.40
2017-03-07T03:59:01.951Z,90.23
2017-03-07T03:59:23.644Z,90.14
2017-03-07T03:59:55.090Z,89.93
2017-03-07T04:00:16.954Z,90.02
2017-03-07T04:00:48.237Z,89.84
2017-03-07T04:01:12.591Z,89.82
2017-03-07T04:01:43.856Z,89.67
2017-03-07T04:02:05.620Z,89.62
2017-03-07T04:02:36.884Z,89.47
2017-03-07T04:02:58.622Z,89.36
2017-03-07T04:03:29.903Z,89.54
2017-03-07T04:03:51.699Z,89.27
2017-03-07T04:04:54.912Z,89.39
2017-03-07T04:05:16.650Z,89.49
2017-03-07T04:05:38.364Z,89.65
2017-03-07T04:06:00.061Z,89.62
2017-03-07T04:06:21.898Z,89.52
2017-03-07T04:07:24.459Z,89.18
2017-03-07T04:07:46.231Z,89.08
2017-03-07T04:08:07.967Z,89.06
2017-03-07T04:08:29.712Z,88.87
2017-03-07T04:08:51.487Z,88.72
2017-03-07T04:09:13.219Z,88.94
2017-03-07T04:09:34.967Z,89.02
2017-03-07T04:09:56.710Z,88.96
2017-03-07T04:10:18.445Z,88.92
2017-03-07T04:10:40.195Z,88.83
2017-03-07T04:11:01.946Z,88.81
2017-03-07T04:11:23.674Z,88.90
2017-03-07T04:11:45.425Z,88.95
2017-03-07T04:12:07.189Z,89.00
2017-03-07T04:12:28.981Z,88.96
2017-03-07T04:12:50.780Z,88.65
2017-03-07T04:13:12.553Z,88.80
2017-03-07T04:13:34.303Z,88.68
2017-03-07T04:13:56.060Z,88.77
2017-03-07T04:14:17.822Z,88.76
2017-03-07T04:14:39.568Z,88.76
2017-03-07T04:15:01.360Z,88.72
2017-03-07T04:15:23.067Z,88.73
2017-03-07T04:15:44.842Z,88.67
2017-03-07T04:16:06.573Z,88.54
2017-03-07T04:16:28.338Z,88.65
2017-03-07T04:16:50.092Z,88.63
2017-03-07T04:17:11.852Z,88.65
2017-03-07T04:17:33.651Z,88.70
2017-03-07T04:17:55.391Z,88.62
2017-03-07T04:18:17.155Z,88.58
2017-03-07T04:18:38.898Z,88.46
2017-03-07T04:19:00.661Z,88.53
2017-03-07T04:19:22.380Z,88.59
2017-03-07T04:19:44.121Z,88.58
2017-03-07T04:20:05.898Z,88.67
2017-03-07T04:20:27.604Z,88.79
2017-03-07T04:20:49.361Z,88.86
2017-03-07T04:21:15.873Z,88.90
2017-03-07T04:21:50.097Z,89.04
2017-03-07T04:22:14.467Z,89.14
2017-03-07T04:22:40.959Z,89.19
2017-03-07T04:23:02.704Z,89.14
2017-03-07T04:24:05.835Z,89.13
2017-03-07T04:24:27.680Z,89.24
2017-03-07T04:24:58.959Z,88.88
2017-03-07T04:25:20.723Z,88.76
2017-03-07T04:25:47.231Z,88.82
2017-03-07T04:26:08.991Z,88.94
2017-03-07T04:27:12.127Z,89.21
2017-03-07T04:27:33.909Z,89.25
2017-03-07T04:28:36.529Z,89.33
2017-03-07T04:28:58.274Z,89.16
2017-03-07T04:29:20.016Z,89.04
2017-03-07T04:29:41.786Z,88.91
2017-03-07T04:30:03.532Z,88.76
2017-03-07T04:30:34.802Z,88.73
2017-03-07T04:30:56.548Z,88.74
2017-03-07T04:31:27.823Z,88.97
2017-03-07T04:31:49.590Z,89.06
2017-03-07T04:32:20.870Z,89.14
2017-03-07T04:32:42.666Z,89.16
2017-03-07T04:33:13.941Z,89.06
2017-03-07T04:33:35.728Z,89.13
2017-03-07T04:34:06.985Z,89.15
2017-03-07T04:34:28.771Z,89.06
2017-03-07T04:34:56.279Z,89.30
2017-03-07T04:35:18.018Z,89.43
2017-03-07T04:35:44.531Z,89.45
2017-03-07T04:36:06.295Z,89.28
2017-03-07T04:36:33.068Z,89.43
2017-03-07T04:36:54.821Z,89.38
2017-03-07T04:37:16.578Z,89.32
2017-03-07T04:37:38.350Z,89.54
2017-03-07T04:38:00.129Z,89.43
2017-03-07T04:38:21.897Z,89.55
2017-03-07T04:38:43.669Z,89.53
2017-03-07T04:39:46.197Z,89.65
2017-03-07T04:40:07.950Z,89.63
2017-03-07T04:40:29.694Z,89.60
2017-03-07T04:40:51.427Z,89.68
2017-03-07T04:41:13.171Z,89.66
2017-03-07T04:41:34.892Z,89.58
2017-03-07T04:41:56.637Z,89.63
2017-03-07T04:42:18.365Z,89.66
2017-03-07T04:42:40.121Z,89.67
2017-03-07T04:43:42.671Z,89.75
2017-03-07T04:44:04.405Z,89.79
2017-03-07T04:44:26.101Z,89.70
2017-03-07T04:44:47.833Z,89.77
2017-03-07T04:45:09.542Z,89.79
2017-03-07T04:45:31.265Z,89.86
2017-03-07T04:45:52.972Z,89.83
2017-03-07T04:46:14.686Z,89.71
2017-03-07T04:47:18.775Z,89.82
2017-03-07T04:47:40.537Z,89.70
2017-03-07T04:48:47.843Z,89.59
2017-03-07T04:49:09.565Z,89.56
2017-03-07T04:49:31.285Z,89.60
2017-03-07T04:49:52.996Z,89.69
2017-03-07T04:50:14.706Z,89.69
2017-03-07T04:50:36.440Z,89.68
2017-03-07T04:50:58.163Z,89.75
2017-03-07T04:51:19.922Z,89.79
2017-03-07T04:51:41.638Z,89.86
2017-03-07T04:52:03.384Z,89.81
2017-03-07T04:52:25.096Z,89.73
2017-03-07T04:52:46.802Z,89.82
2017-03-07T04:53:10.522Z,89.69
2017-03-07T04:53:32.283Z,89.58
2017-03-07T04:53:53.987Z,89.54
2017-03-07T04:54:15.695Z,89.71
2017-03-07T04:54:37.442Z,89.39
2017-03-07T04:54:59.155Z,89.31
2017-03-07T04:55:20.947Z,89.40
2017-03-07T04:55:42.671Z,89.39
2017-03-07T04:56:04.387Z,89.46
2017-03-07T04:56:26.098Z,89.50
2017-03-07T04:56:47.820Z,89.44
2017-03-07T04:57:20.092Z,89.43
2017-03-07T04:57:41.852Z,89.41
2017-03-07T04:58:03.606Z,89.50
2017-03-07T04:58:25.311Z,89.53
2017-03-07T04:58:47.115Z,89.58
2017-03-07T04:59:08.818Z,89.58
2017-03-07T04:59:30.541Z,89.50
2017-03-07T05:00:01.836Z,89.60
2017-03-07T05:00:23.583Z,89.58
2017-03-07T05:00:45.338Z,89.45
2017-03-07T05:01:07.097Z,89.44
2017-03-07T05:01:28.831Z,89.46
2017-03-07T05:01:50.633Z,89.47
2017-03-07T05:02:21.897Z,89.54
2017-03-07T05:02:43.655Z,89.60
2017-03-07T05:03:14.933Z,89.71
2017-03-07T05:03:36.785Z,89.71
2017-03-07T05:04:08.092Z,89.89
2017-03-07T05:04:29.875Z,89.83
2017-03-07T05:04:56.365Z,89.86
2017-03-07T05:05:18.085Z,90.04
2017-03-07T05:05:39.778Z,89.89
2017-03-07T05:06:01.488Z,89.74
2017-03-07T05:06:23.177Z,89.65
2017-03-07T05:06:44.911Z,89.58
2017-03-07T05:07:06.636Z,89.64
2017-03-07T05:07:28.388Z,89.63
2017-03-07T05:07:50.129Z,89.57
2017-03-07T05:08:11.881Z,89.61
2017-03-07T05:08:43.170Z,89.47
2017-03-07T05:09:09.687Z,89.51
2017-03-07T05:09:31.475Z,89.69
2017-03-07T05:09:57.987Z,89.79
2017-03-07T05:10:19.730Z,89.86
2017-03-07T05:10:41.486Z,89.69
2017-03-07T05:11:03.229Z,89.54
2017-03-07T05:11:24.978Z,89.65
2017-03-07T05:11:46.788Z,89.78
2017-03-07T05:12:08.579Z,89.81
2017-03-07T05:13:11.130Z,89.64
2017-03-07T05:13:37.718Z,89.76
2017-03-07T05:13:59.479Z,89.75
2017-03-07T05:15:01.990Z,89.70
2017-03-07T05:15:23.729Z,89.64
2017-03-07T05:15:45.500Z,89.92
2017-03-07T05:16:07.238Z,89.60
2017-03-07T05:16:29.008Z,89.71
2017-03-07T05:16:50.854Z,89.83
2017-03-07T05:17:12.608Z,89.92
2017-03-07T05:17:34.346Z,89.99
2017-03-07T05:17:56.090Z,89.90
2017-03-07T05:18:17.892Z,89.67
2017-03-07T05:18:39.675Z,89.82
2017-03-07T05:19:01.463Z,89.59
2017-03-07T05:20:08.760Z,89.73
2017-03-07T05:20:30.580Z,89.81
2017-03-07T05:20:52.303Z,89.91
2017-03-07T05:21:23.556Z,89.99
2017-03-07T05:21:45.260Z,89.93
2017-03-07T05:22:11.740Z,89.73
2017-03-07T05:22:33.446Z,89.89
2017-03-07T05:23:04.703Z,89.94
2017-03-07T05:23:26.495Z,89.92
2017-03-07T05:24:24.783Z,89.95
2017-03-07T05:24:46.476Z,89.76
2017-03-07T05:25:08.182Z,89.88
2017-03-07T05:25:34.667Z,89.90
2017-03-07T05:25:56.371Z,89.94
2017-03-07T05:26:22.944Z,89.85
2017-03-07T05:26:44.633Z,89.83
2017-03-07T05:27:11.123Z,89.89
2017-03-07T05:27:32.822Z,89.95
2017-03-07T05:28:35.340Z,89.99
2017-03-07T05:29:01.814Z,90.00
2017-03-07T05:29:23.511Z,90.08
2017-03-07T05:29:50.015Z,89.89
2017-03-07T05:30:11.740Z,89.87
2017-03-07T05:30:33.466Z,89.94
2017-03-07T05:31:04.733Z,89.93
2017-03-07T05:31:26.428Z,90.16
2017-03-07T05:32:29.524Z,90.01
2017-03-07T05:32:51.347Z,89.97
2017-03-07T05:33:13.067Z,89.97
2017-03-07T05:33:44.326Z,90.04
2017-03-07T05:34:06.013Z,90.11
2017-03-07T05:35:09.073Z,90.19
2017-03-07T05:35:30.774Z,90.20
2017-03-07T05:35:52.499Z,90.29
2017-03-07T05:36:14.205Z,90.34
2017-03-07T05:36:35.918Z,90.30
2017-03-07T05:36:57.628Z,90.34
2017-03-07T05:37:19.332Z,90.24
2017-03-07T05:37:41.020Z,90.15
2017-03-07T05:38:02.751Z,90.07
2017-03-07T05:38:34.012Z,89.83
2017-03-07T05:38:55.708Z,89.91
2017-03-07T05:39:26.956Z,89.95
2017-03-07T05:39:48.663Z,89.88
2017-03-07T05:40:10.371Z,89.93
2017-03-07T05:40:36.860Z,90.04
2017-03-07T05:40:58.574Z,90.25
2017-03-07T05:41:20.273Z,90.19
2017-03-07T05:41:51.521Z,90.39
2017-03-07T05:42:13.221Z,90.48
2017-03-07T05:42:39.695Z,90.42
2017-03-07T05:43:01.411Z,90.40
2017-03-07T05:43:23.114Z,90.54
2017-03-07T05:43:44.818Z,90.64
2017-03-07T05:44:06.522Z,90.61
2017-03-07T05:44:28.242Z,90.60
2017-03-07T05:44:49.951Z,90.59
2017-03-07T05:45:11.639Z,90.78
2017-03-07T05:46:18.926Z,90.60
2017-03-07T05:46:40.621Z,90.47
2017-03-07T05:47:47.894Z,90.28
2017-03-07T05:48:09.631Z,90.13
2017-03-07T05:48:36.118Z,90.16
2017-03-07T05:48:57.814Z,90.26
2017-03-07T05:50:00.893Z,90.70
2017-03-07T05:50:22.586Z,90.59
2017-03-07T05:50:49.059Z,90.54
2017-03-07T05:51:10.754Z,90.49
2017-03-07T05:51:37.224Z,90.45
2017-03-07T05:51:58.937Z,90.47
2017-03-07T05:52:25.416Z,90.51
2017-03-07T05:52:47.123Z,90.69
2017-03-07T05:53:13.593Z,90.56
2017-03-07T05:53:35.295Z,90.56
2017-03-07T05:53:57.017Z,90.55
2017-03-07T05:54:18.760Z,90.60
2017-03-07T05:54:50.013Z,90.66
2017-03-07T05:55:11.708Z,90.49
2017-03-07T05:55:38.189Z,90.70
2017-03-07T05:55:59.904Z,90.70
2017-03-07T05:56:26.399Z,90.63
2017-03-07T05:56:48.103Z,90.49
2017-03-07T05:57:14.566Z,90.49
2017-03-07T05:57:36.268Z,90.38
2017-03-07T05:58:02.740Z,90.34
2017-03-07T05:58:24.486Z,90.41
2017-03-07T05:58:50.971Z,90.28
2017-03-07T05:59:12.695Z,90.29
2017-03-07T05:59:34.409Z,90.36
2017-03-07T05:59:56.105Z,90.33
2017-03-07T06:00:17.910Z,90.45
2017-03-07T06:00:39.622Z,90.69
2017-03-07T06:01:10.886Z,90.76
2017-03-07T06:01:32.592Z,90.78
2017-03-07T06:01:59.083Z,90.91
2017-03-07T06:02:20.778Z,90.80
2017-03-07T06:02:47.264Z,90.81
2017-03-07T06:03:08.983Z,90.72
2017-03-07T06:03:30.691Z,90.58
2017-03-07T06:03:52.399Z,90.56
2017-03-07T06:04:14.122Z,90.52
2017-03-07T06:04:40.607Z,90.85
2017-03-07T06:05:02.323Z,90.71
2017-03-07T06:05:28.810Z,90.68
2017-03-07T06:05:50.524Z,90.61
2017-03-07T06:06:12.251Z,90.66
2017-03-07T06:07:24.307Z,90.67
2017-03-07T06:07:46.000Z,90.87
2017-03-07T06:08:07.705Z,90.89
2017-03-07T06:08:29.417Z,90.87
2017-03-07T06:08:51.128Z,91.06
2017-03-07T06:09:12.850Z,91.17
2017-03-07T06:09:39.335Z,91.04
2017-03-07T06:10:01.100Z,90.95
2017-03-07T06:10:22.799Z,90.87
2017-03-07T06:11:21.109Z,90.70
2017-03-07T06:11:42.809Z,90.87
2017-03-07T06:12:09.287Z,90.88
2017-03-07T06:12:30.998Z,90.75
2017-03-07T06:12:57.494Z,90.81